createdAt,value
2023-04-15T00:02:21.156Z,96966.09
2023-04-15T00:04:49.855Z,96936.22
2023-04-15T00:07:18.026Z,96895.59
2023-04-15T00:09:46.128Z,96885.13
2023-04-15T00:12:15.934Z,96875.78
2023-04-15T00:14:43.658Z,96859.00
2023-04-15T00:17:11.389Z,96813.69
2023-04-15T00:19:39.519Z,96829.00
2023-04-15T00:22:08.065Z,96818.69
2023-04-15T00:24:35.876Z,96857.88
2023-04-15T00:27:03.673Z,96874.13
2023-04-15T00:29:33.177Z,96841.09
2023-04-15T00:32:01.343Z,96833.94
2023-04-15T00:34:29.172Z,96857.06
2023-04-15T00:36:56.913Z,96860.38
2023-04-15T00:39:24.671Z,96846.88
2023-04-15T00:41:54.244Z,96854.59
2023-04-15T00:44:22.001Z,96874.94
2023-04-15T00:46:53.015Z,96869.19
2023-04-15T00:49:20.954Z,96862.28
2023-04-15T00:51:49.103Z,96852.13
2023-04-15T00:54:17.244Z,96833.41
2023-04-15T00:56:45.313Z,96820.59
2023-04-15T00:59:13.437Z,96826.53
2023-04-15T01:01:41.838Z,96830.78
2023-04-15T01:04:12.355Z,96830.09
2023-04-15T01:06:40.211Z,96809.44
2023-04-15T01:09:07.911Z,96805.16
2023-04-15T01:11:36.581Z,96775.31
2023-04-15T01:14:04.861Z,96767.75
2023-04-15T01:16:32.831Z,96771.06
2023-04-15T01:19:01.329Z,96761.56
2023-04-15T01:21:30.742Z,96774.34
2023-04-15T01:23:59.956Z,96814.66
2023-04-15T01:26:29.650Z,96815.38
2023-04-15T01:28:57.624Z,96866.56
2023-04-15T01:31:25.659Z,96904.69
2023-04-15T01:33:53.490Z,96925.22
2023-04-15T01:36:21.255Z,96951.09
2023-04-15T01:38:49.722Z,96973.00
2023-04-15T01:41:17.650Z,96946.25
2023-04-15T01:43:46.782Z,96974.66
2023-04-15T01:46:14.642Z,97001.91
2023-04-15T01:48:42.606Z,97076.06
2023-04-15T01:51:10.544Z,97070.28
2023-04-15T01:53:38.577Z,97094.94
2023-04-15T01:56:07.317Z,97131.44
2023-04-15T01:58:35.114Z,97150.47
2023-04-15T02:01:04.766Z,97155.59
2023-04-15T02:03:33.063Z,97135.03
2023-04-15T02:06:00.914Z,97129.94
2023-04-15T02:08:28.688Z,97135.03
2023-04-15T02:10:56.767Z,97150.47
2023-04-15T02:13:24.570Z,97191.44
2023-04-15T02:15:52.522Z,97227.28
2023-04-15T02:18:21.731Z,97257.91
2023-04-15T02:20:49.876Z,97267.16
2023-04-15T02:23:17.690Z,97307.47
2023-04-15T02:25:53.380Z,97318.38
2023-04-15T02:28:22.367Z,97365.56
2023-04-15T02:30:53.074Z,97354.38
2023-04-15T02:33:22.826Z,97365.69
2023-04-15T02:35:50.874Z,97387.69
2023-04-15T02:38:18.753Z,97415.28
2023-04-15T02:40:46.657Z,97422.06
2023-04-15T02:43:14.536Z,97412.66
2023-04-15T02:45:43.574Z,97417.91
2023-04-15T02:48:14.511Z,97444.16
2023-04-15T02:50:43.626Z,97463.06
2023-04-15T02:53:11.761Z,97451.06
2023-04-15T02:55:39.582Z,97461.28
2023-04-15T02:58:07.683Z,97488.66
2023-04-15T03:00:35.560Z,97488.66
2023-04-15T03:03:07.829Z,97516.97
2023-04-15T03:05:35.747Z,97515.03
2023-04-15T03:08:04.927Z,97530.63
2023-04-15T03:10:32.824Z,97535.75
2023-04-15T03:13:01.136Z,97543.34
2023-04-15T03:15:29.061Z,97551.22
2023-04-15T03:17:56.903Z,97546.94
2023-04-15T03:20:24.739Z,97535.75
2023-04-15T03:22:52.723Z,97558.97
2023-04-15T03:25:22.334Z,97568.34
2023-04-15T03:27:50.180Z,97564.06
2023-04-15T03:30:18.127Z,97616.34
2023-04-15T03:32:46.154Z,97595.72
2023-04-15T03:35:14.200Z,97610.97
2023-04-15T03:37:42.328Z,97620.50
2023-04-15T03:40:11.060Z,97632.66
2023-04-15T03:42:40.656Z,97627.41
2023-04-15T03:45:11.598Z,97624.91
2023-04-15T03:47:39.622Z,97639.56
2023-04-15T03:50:08.494Z,97644.53
2023-04-15T03:52:36.749Z,97648.69
2023-04-15T03:55:05.288Z,97658.38
2023-04-15T03:57:37.995Z,97722.53
2023-04-15T04:00:09.373Z,97738.03
2023-04-15T04:02:37.423Z,97723.34
2023-04-15T04:05:05.945Z,97758.53
2023-04-15T04:07:33.768Z,97761.03
2023-04-15T04:10:01.851Z,97761.28
2023-04-15T04:12:29.638Z,97763.66
2023-04-15T04:14:57.355Z,97799.63
2023-04-15T04:17:26.703Z,97813.31
2023-04-15T04:19:54.461Z,97841.59
2023-04-15T04:22:23.912Z,97877.56
2023-04-15T04:24:52.016Z,97928.38
2023-04-15T04:27:19.740Z,97958.19
2023-04-15T04:29:49.877Z,97995.88
2023-04-15T04:32:18.053Z,98026.75
2023-04-15T04:34:47.204Z,98032.84
2023-04-15T04:37:15.073Z,98061.03
2023-04-15T04:39:42.887Z,98091.09
2023-04-15T04:42:10.819Z,98120.47
2023-04-15T04:44:38.542Z,98128.22
2023-04-15T04:47:07.644Z,98080.00
2023-04-15T04:49:35.632Z,98057.66
2023-04-15T04:52:04.796Z,98083.47
2023-04-15T04:54:32.633Z,98054.31
2023-04-15T04:57:00.808Z,98056.00
2023-04-15T04:59:28.582Z,98066.28
2023-04-15T05:01:56.572Z,98044.06
2023-04-15T05:04:24.467Z,98058.63
2023-04-15T05:06:52.287Z,98074.03
2023-04-15T05:09:21.435Z,98057.78
2023-04-15T05:11:49.208Z,98077.63
2023-04-15T05:14:17.282Z,98064.72
2023-04-15T05:16:45.072Z,98077.63
2023-04-15T05:19:12.864Z,98106.88
2023-04-15T05:21:40.887Z,98141.97
2023-04-15T05:24:08.763Z,98182.31
2023-04-15T05:26:37.870Z,98252.81
2023-04-15T05:29:05.755Z,98327.38
2023-04-15T05:31:33.935Z,98417.03
2023-04-15T05:34:01.851Z,98542.44
2023-04-15T05:36:29.749Z,98623.31
2023-04-15T05:38:57.520Z,98755.13
2023-04-15T05:41:25.571Z,98843.19
2023-04-15T05:43:54.698Z,98975.13
2023-04-15T05:46:22.605Z,99094.44
2023-04-15T05:48:50.768Z,99163.25
2023-04-15T05:51:18.657Z,99338.72
2023-04-15T05:53:47.008Z,99423.59
2023-04-15T05:56:14.912Z,99475.47
2023-04-15T05:58:42.645Z,99543.94
2023-04-15T06:01:11.850Z,99605.34
2023-04-15T06:03:40.048Z,99638.34
2023-04-15T06:06:08.829Z,99772.56
2023-04-15T06:08:36.590Z,99730.16
2023-04-15T06:11:04.495Z,99831.63
2023-04-15T06:13:32.380Z,100041.78
2023-04-15T06:16:00.196Z,100137.41
2023-04-15T06:18:29.335Z,100142.50
2023-04-15T06:20:57.252Z,100112.28
2023-04-15T06:23:26.917Z,100141.66
2023-04-15T06:25:55.762Z,100135.72
2023-04-15T06:28:23.602Z,100102.66
2023-04-15T06:30:51.622Z,100163.50
2023-04-15T06:33:19.443Z,100127.03
2023-04-15T06:35:49.722Z,100194.69
2023-04-15T06:38:17.458Z,100336.34
2023-04-15T06:40:45.470Z,100420.78
2023-04-15T06:43:13.318Z,100537.41
2023-04-15T06:45:41.186Z,100587.03
2023-04-15T06:48:09.000Z,100639.34
2023-04-15T06:50:36.935Z,100646.38
2023-04-15T06:53:06.650Z,100737.03
2023-04-15T06:55:34.548Z,100735.31
2023-04-15T06:58:02.673Z,100629.88
2023-04-15T07:00:30.673Z,100715.22
2023-04-15T07:02:58.568Z,100896.69
2023-04-15T07:05:26.716Z,101039.97
2023-04-15T07:07:54.523Z,100975.38
2023-04-15T07:10:25.623Z,101019.94
2023-04-15T07:12:53.655Z,101032.28
2023-04-15T07:15:22.247Z,100964.09
2023-04-15T07:17:50.185Z,101081.00
2023-04-15T07:20:18.477Z,101073.22
2023-04-15T07:22:46.264Z,101019.09
2023-04-15T07:25:14.109Z,100973.69
2023-04-15T07:27:43.280Z,100939.59
2023-04-15T07:30:12.583Z,100865.47
2023-04-15T07:32:40.541Z,101104.56
2023-04-15T07:35:09.766Z,101156.16
2023-04-15T07:37:37.562Z,101385.31
2023-04-15T07:40:07.267Z,101481.63
2023-04-15T07:42:35.297Z,101565.72
2023-04-15T07:45:05.365Z,101619.19
2023-04-15T07:47:33.308Z,101673.50
2023-04-15T07:50:02.268Z,101833.09
2023-04-15T07:52:30.021Z,101869.09
2023-04-15T07:54:57.958Z,101905.91
2023-04-15T07:57:26.079Z,101972.59
2023-04-15T07:59:53.858Z,102068.34
2023-04-15T08:02:23.653Z,101971.03
2023-04-15T08:04:51.726Z,101912.97
2023-04-15T08:07:19.963Z,101848.94
2023-04-15T08:09:48.245Z,101809.44
2023-04-15T08:12:16.399Z,101721.81
2023-04-15T08:14:44.339Z,101839.22
2023-04-15T08:17:12.262Z,102117.66
2023-04-15T08:19:42.489Z,102284.72
2023-04-15T08:22:17.868Z,102125.41
2023-04-15T08:24:46.696Z,101916.41
2023-04-15T08:27:14.780Z,101892.75
2023-04-15T08:29:42.650Z,102201.06
2023-04-15T08:32:10.886Z,102449.19
2023-04-15T08:34:38.645Z,102512.63
2023-04-15T08:37:08.228Z,102576.84
2023-04-15T08:39:36.137Z,102694.91
2023-04-15T08:42:07.260Z,102635.88
2023-04-15T08:44:36.908Z,102783.97
2023-04-15T08:47:08.713Z,102939.28
2023-04-15T08:49:40.276Z,102896.25
2023-04-15T08:52:10.408Z,103031.16
2023-04-15T08:54:39.314Z,103427.38
2023-04-15T08:57:08.094Z,103639.06
2023-04-15T08:59:35.978Z,103835.84
2023-04-15T09:02:04.812Z,103740.94
2023-04-15T09:04:33.017Z,103800.38
2023-04-15T09:07:00.841Z,104263.94
2023-04-15T09:09:30.131Z,104298.56
2023-04-15T09:11:58.176Z,104147.44
2023-04-15T09:14:26.095Z,103708.09
2023-04-15T09:17:01.366Z,104029.25
2023-04-15T09:19:29.749Z,103757.63
2023-04-15T09:21:59.223Z,104045.28
2023-04-15T09:24:35.493Z,104137.59
2023-04-15T09:27:04.996Z,104190.03
2023-04-15T09:29:32.887Z,104630.66
2023-04-15T09:32:11.339Z,104609.19
2023-04-15T09:34:39.227Z,104474.78
2023-04-15T09:37:08.016Z,104597.66
2023-04-15T09:39:52.021Z,104456.84
2023-04-15T09:42:24.526Z,104561.06
2023-04-15T09:44:53.222Z,104367.69
2023-04-15T09:47:31.445Z,104548.66
2023-04-15T09:50:00.300Z,104450.47
2023-04-15T09:52:29.019Z,104215.56
2023-04-15T09:54:58.968Z,104334.69
2023-04-15T09:57:35.378Z,104613.44
2023-04-15T10:00:03.752Z,104381.84
2023-04-15T10:02:32.044Z,104242.00
2023-04-15T10:05:01.097Z,104452.09
2023-04-15T10:07:29.671Z,104372.00
2023-04-15T10:09:57.979Z,104356.81
2023-04-15T10:12:27.323Z,104730.78
2023-04-15T10:15:00.426Z,105074.41
2023-04-15T10:17:31.640Z,104966.25
2023-04-15T10:20:02.819Z,104687.16
2023-04-15T10:22:31.549Z,104749.41
2023-04-15T10:25:00.762Z,105061.75
2023-04-15T10:27:29.569Z,104932.31
2023-04-15T10:30:01.661Z,104698.63
2023-04-15T10:32:29.629Z,104785.88
2023-04-15T10:34:58.315Z,104621.78
2023-04-15T10:37:36.026Z,104605.75
2023-04-15T10:40:26.101Z,104670.69
2023-04-15T10:42:55.068Z,104976.69
2023-04-15T10:45:27.323Z,105079.28
2023-04-15T10:47:56.990Z,105224.03
2023-04-15T10:50:28.225Z,105046.22
2023-04-15T10:52:57.465Z,105475.31
2023-04-15T10:55:28.428Z,105368.03
2023-04-15T10:58:00.895Z,105127.38
2023-04-15T11:00:32.876Z,105594.25
2023-04-15T11:03:07.336Z,105607.75
2023-04-15T11:05:51.526Z,105843.38
2023-04-15T11:08:19.542Z,105886.44
2023-04-15T11:10:56.517Z,105864.84
2023-04-15T11:13:31.791Z,105807.41
2023-04-15T11:16:02.755Z,105870.22
2023-04-15T11:18:32.854Z,105931.16
2023-04-15T11:21:03.550Z,105530.41
2023-04-15T11:23:37.014Z,106233.59
2023-04-15T11:26:09.913Z,106018.16
2023-04-15T11:28:39.212Z,106452.13
2023-04-15T11:31:11.308Z,105661.09
2023-04-15T11:33:45.861Z,105668.22
2023-04-15T11:36:13.880Z,105631.38
2023-04-15T11:38:45.223Z,105651.06
2023-04-15T11:41:13.260Z,106042.03
2023-04-15T11:43:41.536Z,106069.84
2023-04-15T11:46:10.762Z,105982.78
2023-04-15T11:48:43.306Z,105997.06
2023-04-15T11:51:11.510Z,105883.94
2023-04-15T11:53:41.329Z,105797.81
2023-04-15T11:56:10.850Z,106033.69
2023-04-15T11:58:40.180Z,105605.00
2023-04-15T12:01:08.465Z,105876.56
2023-04-15T12:03:43.321Z,105552.00
2023-04-15T12:06:14.173Z,105723.97
2023-04-15T12:08:59.401Z,105721.25
2023-04-15T12:11:47.198Z,105644.06
2023-04-15T12:14:22.332Z,105390.66
2023-04-15T12:16:52.612Z,104832.22
2023-04-15T12:19:25.926Z,105064.16
2023-04-15T12:22:00.225Z,105475.44
2023-04-15T12:24:28.590Z,105667.06
2023-04-15T12:26:58.223Z,105783.63
2023-04-15T12:29:27.892Z,105528.31
2023-04-15T12:31:57.015Z,105383.22
2023-04-15T12:34:31.209Z,105282.91
2023-04-15T12:37:00.796Z,104674.03
2023-04-15T12:39:31.221Z,104588.22
2023-04-15T12:42:00.313Z,104492.00
2023-04-15T12:44:29.018Z,104720.09
2023-04-15T12:46:57.639Z,104614.88
2023-04-15T12:49:25.916Z,104811.94
2023-04-15T12:51:56.438Z,104852.94
2023-04-15T12:54:24.619Z,105224.41
2023-04-15T12:56:54.183Z,105019.66
2023-04-15T12:59:24.129Z,105084.03
2023-04-15T13:01:53.548Z,104604.00
2023-04-15T13:04:22.409Z,103915.66
2023-04-15T13:06:50.588Z,103994.38
2023-04-15T13:09:19.726Z,103910.09
2023-04-15T13:11:47.501Z,103973.94
2023-04-15T13:14:15.860Z,104473.66
2023-04-15T13:16:43.667Z,105031.06
2023-04-15T13:19:11.537Z,104963.91
2023-04-15T13:21:39.319Z,104580.38
2023-04-15T13:24:08.156Z,104707.81
2023-04-15T13:26:37.945Z,105365.16
2023-04-15T13:29:05.801Z,105622.13
2023-04-15T13:31:33.636Z,105171.03
2023-04-15T13:34:01.398Z,105400.94
2023-04-15T13:36:29.293Z,105407.22
2023-04-15T13:38:57.820Z,105004.13
2023-04-15T13:41:25.663Z,105322.06
2023-04-15T13:43:54.843Z,104913.72
2023-04-15T13:46:22.835Z,105233.31
2023-04-15T13:48:50.872Z,104806.66
2023-04-15T13:51:18.764Z,104589.81
2023-04-15T13:53:46.586Z,104732.31
2023-04-15T13:56:14.379Z,104553.03
2023-04-15T13:58:42.467Z,104360.00
2023-04-15T14:01:11.704Z,104681.38
2023-04-15T14:03:39.650Z,104881.25
2023-04-15T14:06:07.950Z,104777.53
2023-04-15T14:08:35.753Z,104895.44
2023-04-15T14:11:03.610Z,105148.91
2023-04-15T14:13:31.585Z,105016.81
2023-04-15T14:15:59.442Z,104347.22
2023-04-15T14:18:29.899Z,104187.94
2023-04-15T14:20:58.012Z,104083.00
2023-04-15T14:23:25.839Z,104004.69
2023-04-15T14:25:54.497Z,104305.19
2023-04-15T14:28:22.520Z,104686.31
2023-04-15T14:30:50.411Z,104122.91
2023-04-15T14:33:18.415Z,104442.06
2023-04-15T14:35:47.893Z,103889.31
2023-04-15T14:38:15.731Z,103759.53
2023-04-15T14:40:43.725Z,104047.91
2023-04-15T14:43:11.537Z,103875.72
2023-04-15T14:45:42.110Z,104011.50
2023-04-15T14:48:12.753Z,104120.63
2023-04-15T14:50:41.072Z,104345.69
2023-04-15T14:53:10.623Z,104290.56
2023-04-15T14:55:38.582Z,104407.00
2023-04-15T14:58:08.182Z,103595.19
2023-04-15T15:00:39.278Z,103587.13
2023-04-15T15:03:12.685Z,103993.41
2023-04-15T15:05:41.302Z,103959.69
2023-04-15T15:08:11.474Z,103939.31
2023-04-15T15:10:48.205Z,104065.34
2023-04-15T15:13:16.799Z,104181.75
2023-04-15T15:15:44.723Z,104100.75
2023-04-15T15:18:12.681Z,104020.75
2023-04-15T15:20:40.520Z,103712.69
2023-04-15T15:23:08.315Z,103809.44
2023-04-15T15:25:37.570Z,103371.53
2023-04-15T15:28:05.860Z,103131.09
2023-04-15T15:30:33.711Z,102848.47
2023-04-15T15:33:01.582Z,102373.34
2023-04-15T15:35:29.524Z,102039.31
2023-04-15T15:37:57.541Z,101758.28
2023-04-15T15:40:25.399Z,101578.75
2023-04-15T15:42:54.573Z,101416.53
2023-04-15T15:45:22.338Z,101121.84
2023-04-15T15:47:50.950Z,101290.47
2023-04-15T15:50:19.239Z,101289.63
2023-04-15T15:52:47.007Z,101566.25
2023-04-15T15:55:14.927Z,101817.53
2023-04-15T15:57:42.887Z,101886.06
2023-04-15T16:00:13.683Z,101543.25
2023-04-15T16:05:14.322Z,101466.97
2023-04-15T16:07:42.108Z,101157.25
2023-04-15T16:10:12.517Z,101150.22
2023-04-15T16:12:40.351Z,101348.59
2023-04-15T16:15:09.269Z,100956.38
2023-04-15T16:17:38.599Z,100896.13
2023-04-15T16:20:07.706Z,100738.19
2023-04-15T16:22:36.395Z,100468.19
2023-04-15T16:25:04.395Z,100139.50
2023-04-15T16:27:32.264Z,99926.75
2023-04-15T16:30:00.574Z,99824.53
2023-04-15T16:32:28.571Z,99746.38
2023-04-15T16:34:57.809Z,99667.75
2023-04-15T16:37:25.722Z,99652.09
2023-04-15T16:39:54.292Z,99668.25
2023-04-15T16:42:22.101Z,99638.84
2023-04-15T16:44:49.866Z,99585.84
2023-04-15T16:47:17.655Z,99501.28
2023-04-15T16:49:45.522Z,99454.31
2023-04-15T16:52:14.723Z,99436.25
2023-04-15T16:54:42.700Z,99364.31
2023-04-15T16:57:10.543Z,99326.28
2023-04-15T16:59:39.026Z,99292.84
2023-04-15T17:02:07.003Z,99257.28
2023-04-15T17:04:35.456Z,99227.78
2023-04-15T17:07:06.939Z,99176.00
2023-04-15T17:09:36.421Z,99136.38
2023-04-15T17:12:05.087Z,99088.66
2023-04-15T17:14:33.159Z,99049.75
2023-04-15T17:17:01.337Z,99013.47
2023-04-15T17:19:29.203Z,99001.56
2023-04-15T17:21:58.104Z,98935.81
2023-04-15T17:24:26.069Z,98898.63
2023-04-15T17:26:56.376Z,98887.56
2023-04-15T17:29:27.106Z,98848.69
2023-04-15T17:31:56.083Z,98815.13
2023-04-15T17:34:23.875Z,98778.94
2023-04-15T17:36:53.700Z,98754.94
2023-04-15T17:39:21.751Z,98713.59
2023-04-15T17:41:49.631Z,98672.97
2023-04-15T17:44:19.298Z,98670.47
2023-04-15T17:46:47.335Z,98633.28
2023-04-15T17:49:15.555Z,98598.91
2023-04-15T17:51:44.896Z,98557.59
2023-04-15T17:54:12.796Z,98543.78
2023-04-15T17:56:40.765Z,98509.31
2023-04-15T17:59:08.906Z,98508.34
2023-04-15T18:01:38.227Z,98466.22
2023-04-15T18:04:06.713Z,98431.03
2023-04-15T18:06:36.124Z,98396.72
2023-04-15T18:09:04.548Z,98363.22
2023-04-15T18:11:33.599Z,98284.88
2023-04-15T18:14:04.228Z,98231.59
2023-04-15T18:16:32.379Z,98240.31
2023-04-15T18:19:01.810Z,98228.25
2023-04-15T18:21:29.710Z,98207.41
2023-04-15T18:23:57.439Z,98162.16
2023-04-15T18:26:28.600Z,98108.03
2023-04-15T18:28:56.539Z,98067.69
2023-04-15T18:31:24.524Z,98042.88
2023-04-15T18:33:52.359Z,98008.50
2023-04-15T18:36:21.608Z,97977.69
2023-04-15T18:38:49.355Z,97947.63
2023-04-15T18:41:17.082Z,97898.97
2023-04-15T18:43:44.980Z,97822.66
2023-04-15T18:46:13.882Z,97829.84
2023-04-15T18:48:41.658Z,97802.03
2023-04-15T18:51:09.464Z,97780.44
2023-04-15T18:53:38.737Z,97815.59
2023-04-15T18:56:06.809Z,97829.16
2023-04-15T18:59:18.127Z,97799.25
2023-04-15T19:01:22.595Z,97758.25
2023-04-15T19:03:51.069Z,97674.13
2023-04-15T19:06:18.976Z,97633.84
2023-04-15T19:08:48.260Z,97591.13
2023-04-15T19:11:16.185Z,97537.31
2023-04-15T19:13:44.108Z,97506.50
2023-04-15T19:16:11.971Z,97464.75
2023-04-15T19:18:39.700Z,97432.25
2023-04-15T19:21:07.520Z,97385.16
2023-04-15T19:23:35.437Z,97413.22
2023-04-15T19:26:04.587Z,97434.63
2023-04-15T19:28:32.472Z,97438.94
2023-04-15T19:31:00.404Z,97449.16
2023-04-15T19:33:31.216Z,97436.31
2023-04-15T19:36:01.960Z,97439.03
2023-04-15T19:38:30.596Z,97435.59
2023-04-15T19:40:58.529Z,97381.56
2023-04-15T19:43:27.669Z,97330.50
2023-04-15T19:45:55.537Z,97312.66
2023-04-15T19:48:25.834Z,97275.81
2023-04-15T19:50:53.746Z,97253.72
2023-04-15T19:53:21.599Z,97264.63
2023-04-15T19:55:49.498Z,97254.41
2023-04-15T19:58:17.308Z,97209.13
2023-04-15T20:00:46.483Z,97193.00
2023-04-15T20:03:14.898Z,97157.97
2023-04-15T20:05:42.791Z,97116.19
2023-04-15T20:08:10.641Z,97081.97
2023-04-15T20:10:38.977Z,97072.72
2023-04-15T20:13:07.045Z,97047.91
2023-04-15T20:15:34.962Z,97018.16
2023-04-15T20:18:04.245Z,97016.50
2023-04-15T20:20:32.198Z,96983.97
2023-04-15T20:22:59.977Z,96945.66
2023-04-15T20:25:27.796Z,96915.91
2023-04-15T20:27:57.346Z,96910.69
2023-04-15T20:30:26.185Z,96880.78
2023-04-15T20:32:53.957Z,96860.53
2023-04-15T20:35:23.450Z,96852.84
2023-04-15T20:37:51.306Z,96823.94
2023-04-15T20:40:19.206Z,96793.09
2023-04-15T20:42:46.966Z,96781.38
2023-04-15T20:45:14.888Z,96764.47
2023-04-15T20:47:42.656Z,96730.34
2023-04-15T20:50:11.776Z,96691.97
2023-04-15T20:52:41.224Z,96677.53
2023-04-15T20:55:09.765Z,96661.28
2023-04-15T20:57:37.615Z,96631.44
2023-04-15T21:00:09.397Z,96600.94
2023-04-15T21:02:37.262Z,96588.97
2023-04-15T21:05:05.899Z,96577.16
2023-04-15T21:07:33.755Z,96556.78
2023-04-15T21:10:02.951Z,96548.28
2023-04-15T21:12:31.150Z,96570.28
2023-04-15T21:14:58.967Z,96581.41
2023-04-15T21:17:27.041Z,96582.09
2023-04-15T21:19:55.244Z,96594.88
2023-04-15T21:22:23.165Z,96577.44
2023-04-15T21:24:50.922Z,96580.44
2023-04-15T21:27:20.151Z,96553.22
2023-04-15T21:29:47.922Z,96544.53
2023-04-15T21:32:16.123Z,96541.09
2023-04-15T21:34:44.641Z,96576.88
2023-04-15T21:37:12.491Z,96569.31
2023-04-15T21:39:40.268Z,96549.63
2023-04-15T21:42:08.129Z,96537.81
2023-04-15T21:44:37.351Z,96512.25
2023-04-15T21:47:05.300Z,96486.72
2023-04-15T21:49:33.252Z,96474.22
2023-04-15T21:52:01.737Z,96430.13
2023-04-15T21:54:31.085Z,96414.75
2023-04-15T21:56:58.879Z,96384.81
2023-04-15T21:59:27.172Z,96355.97
2023-04-15T22:01:56.512Z,96332.34
2023-04-15T22:04:24.642Z,96306.84
2023-04-15T22:06:55.662Z,96286.53
2023-04-15T22:09:23.666Z,96268.69
2023-04-15T22:11:51.575Z,96242.22
2023-04-15T22:14:19.392Z,96250.88
2023-04-15T22:16:47.290Z,96234.81
2023-04-15T22:19:16.504Z,96211.09
2023-04-15T22:21:44.352Z,96191.47
2023-04-15T22:24:33.194Z,96169.53
2023-04-15T22:27:00.126Z,96142.25
2023-04-15T22:29:28.121Z,96121.94
2023-04-15T22:31:55.965Z,96108.38
2023-04-15T22:34:25.094Z,96110.16
2023-04-15T22:36:53.363Z,96096.44
2023-04-15T22:39:21.549Z,96087.13
2023-04-15T22:41:49.713Z,96077.00
2023-04-15T22:44:17.545Z,96067.69
2023-04-15T22:46:45.519Z,96062.78
2023-04-15T22:49:13.483Z,96033.72
2023-04-15T22:51:42.600Z,96014.22
2023-04-15T22:54:10.757Z,95989.72
2023-04-15T22:56:38.514Z,95966.03
2023-04-15T22:59:06.379Z,95963.59
2023-04-15T23:01:34.316Z,95948.25
2023-04-15T23:04:08.280Z,95930.44
2023-04-15T23:06:51.870Z,95920.31
2023-04-15T23:09:19.844Z,95906.91
2023-04-15T23:11:48.496Z,95889.78
2023-04-15T23:14:16.702Z,95886.50
2023-04-15T23:16:45.591Z,95884.72
2023-04-15T23:19:13.461Z,95913.47
2023-04-15T23:21:41.490Z,95897.44
2023-04-15T23:24:10.844Z,95900.88
2023-04-15T23:26:38.705Z,95897.44
2023-04-15T23:29:06.586Z,95896.47
2023-04-15T23:31:34.705Z,95884.72
2023-04-15T23:34:03.301Z,95874.59
2023-04-15T23:36:31.793Z,95854.34
2023-04-15T23:38:59.930Z,95834.78
2023-04-15T23:41:29.018Z,95818.94
2023-04-15T23:43:56.846Z,95787.22
2023-04-15T23:46:24.872Z,95779.25
2023-04-15T23:48:52.923Z,95758.56
2023-04-15T23:51:20.943Z,95746.00
2023-04-15T23:53:52.370Z,95729.84
2023-04-15T23:56:20.841Z,95718.09
2023-04-15T23:58:50.003Z,95719.22
